sensor_id;sensor_type;location;lat;lon;timestamp;P1;durP1;ratioP1;P2;durP2;ratioP2
51692;SDS011;37777;53.066;21.638;2022-12-24T00:00:07;59.83;;;18.48;;
51692;SDS011;37777;53.066;21.638;2022-12-24T00:07:10;46.70;;;19.15;;
51692;SDS011;37777;53.066;21.638;2022-12-24T00:14:11;60.75;;;20.50;;
51692;SDS011;37777;53.066;21.638;2022-12-24T00:21:14;77.15;;;22.30;;
51692;SDS011;37777;53.066;21.638;2022-12-24T00:28:16;85.18;;;25.58;;
51692;SDS011;37777;53.066;21.638;2022-12-24T00:35:18;84.78;;;27.17;;
51692;SDS011;37777;53.066;21.638;2022-12-24T00:42:20;76.25;;;25.63;;
51692;SDS011;37777;53.066;21.638;2022-12-24T00:49:22;70.15;;;23.60;;
51692;SDS011;37777;53.066;21.638;2022-12-24T00:56:25;57.30;;;20.13;;
51692;SDS011;37777;53.066;21.638;2022-12-24T01:03:27;60.15;;;21.10;;
51692;SDS011;37777;53.066;21.638;2022-12-24T01:10:36;51.00;;;17.17;;
51692;SDS011;37777;53.066;21.638;2022-12-24T01:17:38;68.82;;;20.42;;
51692;SDS011;37777;53.066;21.638;2022-12-24T01:24:41;56.60;;;19.58;;
51692;SDS011;37777;53.066;21.638;2022-12-24T01:31:43;54.58;;;18.08;;
51692;SDS011;37777;53.066;21.638;2022-12-24T01:38:45;49.78;;;16.70;;
51692;SDS011;37777;53.066;21.638;2022-12-24T01:52:53;44.03;;;16.83;;
51692;SDS011;37777;53.066;21.638;2022-12-24T01:59:56;56.50;;;17.17;;
51692;SDS011;37777;53.066;21.638;2022-12-24T02:06:59;35.95;;;14.73;;
51692;SDS011;37777;53.066;21.638;2022-12-24T02:14:01;52.75;;;16.48;;
51692;SDS011;37777;53.066;21.638;2022-12-24T02:35:34;47.97;;;15.93;;
51692;SDS011;37777;53.066;21.638;2022-12-24T02:42:39;42.58;;;16.45;;
51692;SDS011;37777;53.066;21.638;2022-12-24T02:49:43;51.97;;;17.27;;
51692;SDS011;37777;53.066;21.638;2022-12-24T03:11:08;44.17;;;16.23;;
51692;SDS011;37777;53.066;21.638;2022-12-24T03:18:13;40.08;;;14.57;;
51692;SDS011;37777;53.066;21.638;2022-12-24T03:25:17;37.80;;;14.85;;
51692;SDS011;37777;53.066;21.638;2022-12-24T03:32:24;37.80;;;13.23;;
51692;SDS011;37777;53.066;21.638;2022-12-24T03:39:29;37.85;;;13.07;;
51692;SDS011;37777;53.066;21.638;2022-12-24T03:46:31;37.70;;;13.05;;
51692;SDS011;37777;53.066;21.638;2022-12-24T03:53:33;28.73;;;10.82;;
51692;SDS011;37777;53.066;21.638;2022-12-24T04:00:35;24.77;;;11.27;;
51692;SDS011;37777;53.066;21.638;2022-12-24T04:07:37;21.30;;;9.07;;
51692;SDS011;37777;53.066;21.638;2022-12-24T04:14:39;20.30;;;8.85;;
51692;SDS011;37777;53.066;21.638;2022-12-24T04:21:41;20.42;;;8.02;;
51692;SDS011;37777;53.066;21.638;2022-12-24T04:28:43;19.58;;;8.85;;
51692;SDS011;37777;53.066;21.638;2022-12-24T04:35:45;24.38;;;8.18;;
51692;SDS011;37777;53.066;21.638;2022-12-24T04:42:47;20.90;;;8.55;;
51692;SDS011;37777;53.066;21.638;2022-12-24T04:49:50;24.25;;;7.95;;
51692;SDS011;37777;53.066;21.638;2022-12-24T04:56:52;13.02;;;7.30;;
51692;SDS011;37777;53.066;21.638;2022-12-24T05:03:55;21.85;;;9.52;;
51692;SDS011;37777;53.066;21.638;2022-12-24T05:10:57;19.65;;;8.13;;
51692;SDS011;37777;53.066;21.638;2022-12-24T05:17:59;24.45;;;8.23;;
51692;SDS011;37777;53.066;21.638;2022-12-24T05:25:01;19.15;;;7.82;;
51692;SDS011;37777;53.066;21.638;2022-12-24T05:32:22;20.40;;;8.18;;
51692;SDS011;37777;53.066;21.638;2022-12-24T05:39:24;13.52;;;6.97;;
51692;SDS011;37777;53.066;21.638;2022-12-24T05:46:26;15.05;;;7.28;;
51692;SDS011;37777;53.066;21.638;2022-12-24T05:53:28;19.08;;;9.65;;
51692;SDS011;37777;53.066;21.638;2022-12-24T06:00:32;21.55;;;9.43;;
51692;SDS011;37777;53.066;21.638;2022-12-24T06:07:34;29.85;;;10.70;;
51692;SDS011;37777;53.066;21.638;2022-12-24T06:14:36;36.13;;;14.20;;
51692;SDS011;37777;53.066;21.638;2022-12-24T06:21:38;16.83;;;8.38;;
51692;SDS011;37777;53.066;21.638;2022-12-24T06:28:40;17.10;;;6.95;;
51692;SDS011;37777;53.066;21.638;2022-12-24T06:35:43;18.35;;;7.20;;
51692;SDS011;37777;53.066;21.638;2022-12-24T06:42:46;18.33;;;7.18;;
51692;SDS011;37777;53.066;21.638;2022-12-24T06:49:49;14.95;;;5.95;;
51692;SDS011;37777;53.066;21.638;2022-12-24T06:56:51;10.75;;;6.20;;
51692;SDS011;37777;53.066;21.638;2022-12-24T07:03:53;14.20;;;6.97;;
51692;SDS011;37777;53.066;21.638;2022-12-24T07:10:55;15.43;;;7.45;;
51692;SDS011;37777;53.066;21.638;2022-12-24T07:17:59;20.77;;;7.40;;
51692;SDS011;37777;53.066;21.638;2022-12-24T07:25:01;13.68;;;7.38;;
51692;SDS011;37777;53.066;21.638;2022-12-24T07:32:03;13.15;;;7.60;;
51692;SDS011;37777;53.066;21.638;2022-12-24T07:39:06;10.15;;;6.10;;
51692;SDS011;37777;53.066;21.638;2022-12-24T07:46:08;10.60;;;5.93;;
51692;SDS011;37777;53.066;21.638;2022-12-24T07:53:10;13.18;;;6.03;;
51692;SDS011;37777;53.066;21.638;2022-12-24T08:00:12;16.95;;;6.72;;
51692;SDS011;37777;53.066;21.638;2022-12-24T08:07:15;11.88;;;6.00;;
51692;SDS011;37777;53.066;21.638;2022-12-24T08:14:17;10.75;;;6.22;;
51692;SDS011;37777;53.066;21.638;2022-12-24T08:21:19;13.35;;;6.32;;
51692;SDS011;37777;53.066;21.638;2022-12-24T08:28:21;12.93;;;6.82;;
51692;SDS011;37777;53.066;21.638;2022-12-24T08:35:26;17.60;;;6.28;;
51692;SDS011;37777;53.066;21.638;2022-12-24T08:42:28;12.25;;;6.32;;
51692;SDS011;37777;53.066;21.638;2022-12-24T08:49:30;16.00;;;6.50;;
51692;SDS011;37777;53.066;21.638;2022-12-24T08:56:32;18.15;;;7.40;;
51692;SDS011;37777;53.066;21.638;2022-12-24T09:03:35;25.60;;;8.45;;
51692;SDS011;37777;53.066;21.638;2022-12-24T09:10:37;16.98;;;7.57;;
51692;SDS011;37777;53.066;21.638;2022-12-24T09:17:39;15.20;;;7.15;;
51692;SDS011;37777;53.066;21.638;2022-12-24T09:24:41;15.02;;;6.82;;
51692;SDS011;37777;53.066;21.638;2022-12-24T09:31:43;15.35;;;5.63;;
51692;SDS011;37777;53.066;21.638;2022-12-24T09:38:45;14.50;;;6.35;;
51692;SDS011;37777;53.066;21.638;2022-12-24T09:52:56;11.00;;;6.20;;
51692;SDS011;37777;53.066;21.638;2022-12-24T09:59:59;12.82;;;7.65;;
51692;SDS011;37777;53.066;21.638;2022-12-24T10:07:07;13.07;;;7.85;;
51692;SDS011;37777;53.066;21.638;2022-12-24T10:22:04;14.05;;;7.68;;
51692;SDS011;37777;53.066;21.638;2022-12-24T10:36:19;13.68;;;7.15;;
51692;SDS011;37777;53.066;21.638;2022-12-24T10:43:25;13.68;;;7.35;;
51692;SDS011;37777;53.066;21.638;2022-12-24T10:50:30;13.27;;;8.07;;
51692;SDS011;37777;53.066;21.638;2022-12-24T10:57:38;14.80;;;8.18;;
51692;SDS011;37777;53.066;21.638;2022-12-24T11:04:45;13.30;;;7.65;;
51692;SDS011;37777;53.066;21.638;2022-12-24T11:11:48;17.25;;;8.23;;
51692;SDS011;37777;53.066;21.638;2022-12-24T11:18:54;17.58;;;9.60;;
51692;SDS011;37777;53.066;21.638;2022-12-24T11:25:58;16.95;;;9.50;;
51692;SDS011;37777;53.066;21.638;2022-12-24T11:40:02;14.18;;;8.90;;
51692;SDS011;37777;53.066;21.638;2022-12-24T11:47:04;16.70;;;7.72;;
51692;SDS011;37777;53.066;21.638;2022-12-24T11:54:18;19.17;;;9.43;;
51692;SDS011;37777;53.066;21.638;2022-12-24T12:01:26;13.32;;;8.35;;
51692;SDS011;37777;53.066;21.638;2022-12-24T12:08:49;14.77;;;7.50;;
51692;SDS011;37777;53.066;21.638;2022-12-24T12:16:05;14.77;;;8.25;;
51692;SDS011;37777;53.066;21.638;2022-12-24T12:30:30;15.77;;;8.20;;
51692;SDS011;37777;53.066;21.638;2022-12-24T12:37:34;20.33;;;8.98;;
51692;SDS011;37777;53.066;21.638;2022-12-24T12:52:12;13.93;;;7.25;;
51692;SDS011;37777;53.066;21.638;2022-12-24T12:59:37;13.63;;;7.80;;
51692;SDS011;37777;53.066;21.638;2022-12-24T13:06:51;15.50;;;7.32;;
51692;SDS011;37777;53.066;21.638;2022-12-24T13:21:43;17.33;;;9.10;;
51692;SDS011;37777;53.066;21.638;2022-12-24T13:28:46;13.20;;;7.65;;
51692;SDS011;37777;53.066;21.638;2022-12-24T13:35:58;17.35;;;7.57;;
51692;SDS011;37777;53.066;21.638;2022-12-24T13:43:06;15.02;;;7.78;;
51692;SDS011;37777;53.066;21.638;2022-12-24T13:50:16;15.27;;;7.85;;
51692;SDS011;37777;53.066;21.638;2022-12-24T13:57:39;18.27;;;8.75;;
51692;SDS011;37777;53.066;21.638;2022-12-24T14:04:45;17.70;;;8.52;;
51692;SDS011;37777;53.066;21.638;2022-12-24T14:19:03;18.63;;;8.80;;
51692;SDS011;37777;53.066;21.638;2022-12-24T14:26:16;17.40;;;9.00;;
51692;SDS011;37777;53.066;21.638;2022-12-24T14:33:32;20.15;;;8.45;;
51692;SDS011;37777;53.066;21.638;2022-12-24T14:55:36;18.15;;;9.68;;
51692;SDS011;37777;53.066;21.638;2022-12-24T15:02:49;14.52;;;7.97;;
51692;SDS011;37777;53.066;21.638;2022-12-24T15:09:51;18.88;;;8.98;;
51692;SDS011;37777;53.066;21.638;2022-12-24T15:16:56;21.38;;;10.63;;
51692;SDS011;37777;53.066;21.638;2022-12-24T15:24:00;24.55;;;11.07;;
51692;SDS011;37777;53.066;21.638;2022-12-24T15:45:27;20.45;;;8.90;;
51692;SDS011;37777;53.066;21.638;2022-12-24T15:52:31;25.45;;;9.52;;
51692;SDS011;37777;53.066;21.638;2022-12-24T15:59:39;19.57;;;8.23;;
51692;SDS011;37777;53.066;21.638;2022-12-24T16:06:58;15.70;;;8.45;;
51692;SDS011;37777;53.066;21.638;2022-12-24T16:14:13;16.33;;;7.38;;
51692;SDS011;37777;53.066;21.638;2022-12-24T16:21:23;14.85;;;7.75;;
51692;SDS011;37777;53.066;21.638;2022-12-24T16:28:34;14.38;;;7.18;;
51692;SDS011;37777;53.066;21.638;2022-12-24T16:35:36;10.18;;;6.72;;
51692;SDS011;37777;53.066;21.638;2022-12-24T16:42:38;13.95;;;7.07;;
51692;SDS011;37777;53.066;21.638;2022-12-24T16:50:00;14.68;;;7.10;;
51692;SDS011;37777;53.066;21.638;2022-12-24T16:57:03;14.70;;;7.15;;
51692;SDS011;37777;53.066;21.638;2022-12-24T17:04:05;11.75;;;6.55;;
51692;SDS011;37777;53.066;21.638;2022-12-24T17:11:07;14.60;;;6.40;;
51692;SDS011;37777;53.066;21.638;2022-12-24T17:18:09;12.45;;;7.32;;
51692;SDS011;37777;53.066;21.638;2022-12-24T17:25:12;15.40;;;8.20;;
51692;SDS011;37777;53.066;21.638;2022-12-24T17:32:14;12.45;;;7.75;;
51692;SDS011;37777;53.066;21.638;2022-12-24T17:39:16;9.63;;;6.25;;
51692;SDS011;37777;53.066;21.638;2022-12-24T17:46:27;17.58;;;7.47;;
51692;SDS011;37777;53.066;21.638;2022-12-24T17:53:30;13.50;;;6.88;;
51692;SDS011;37777;53.066;21.638;2022-12-24T18:00:36;13.05;;;6.82;;
51692;SDS011;37777;53.066;21.638;2022-12-24T18:07:38;13.10;;;6.88;;
51692;SDS011;37777;53.066;21.638;2022-12-24T18:14:40;12.50;;;7.07;;
51692;SDS011;37777;53.066;21.638;2022-12-24T18:21:43;15.10;;;7.40;;
51692;SDS011;37777;53.066;21.638;2022-12-24T18:28:45;15.32;;;7.68;;
51692;SDS011;37777;53.066;21.638;2022-12-24T18:35:47;18.70;;;8.82;;
51692;SDS011;37777;53.066;21.638;2022-12-24T18:42:50;14.02;;;8.30;;
51692;SDS011;37777;53.066;21.638;2022-12-24T18:49:52;23.80;;;10.15;;
51692;SDS011;37777;53.066;21.638;2022-12-24T18:56:54;17.80;;;9.30;;
51692;SDS011;37777;53.066;21.638;2022-12-24T19:03:57;18.65;;;9.75;;
51692;SDS011;37777;53.066;21.638;2022-12-24T19:10:59;17.85;;;8.70;;
51692;SDS011;37777;53.066;21.638;2022-12-24T19:18:01;16.08;;;8.73;;
51692;SDS011;37777;53.066;21.638;2022-12-24T19:25:03;15.35;;;8.68;;
51692;SDS011;37777;53.066;21.638;2022-12-24T19:32:05;13.25;;;8.13;;
51692;SDS011;37777;53.066;21.638;2022-12-24T19:39:07;13.65;;;7.32;;
51692;SDS011;37777;53.066;21.638;2022-12-24T19:46:11;14.50;;;8.10;;
51692;SDS011;37777;53.066;21.638;2022-12-24T19:53:17;14.25;;;7.47;;
51692;SDS011;37777;53.066;21.638;2022-12-24T20:00:20;16.23;;;8.13;;
51692;SDS011;37777;53.066;21.638;2022-12-24T20:07:26;14.70;;;7.75;;
51692;SDS011;37777;53.066;21.638;2022-12-24T20:14:32;12.38;;;7.47;;
51692;SDS011;37777;53.066;21.638;2022-12-24T20:21:38;15.63;;;8.25;;
51692;SDS011;37777;53.066;21.638;2022-12-24T20:28:41;17.90;;;8.10;;
51692;SDS011;37777;53.066;21.638;2022-12-24T20:35:50;15.40;;;7.93;;
51692;SDS011;37777;53.066;21.638;2022-12-24T20:42:54;12.70;;;7.55;;
51692;SDS011;37777;53.066;21.638;2022-12-24T20:50:01;16.55;;;7.97;;
51692;SDS011;37777;53.066;21.638;2022-12-24T20:57:08;15.63;;;8.68;;
51692;SDS011;37777;53.066;21.638;2022-12-24T21:04:13;15.20;;;7.75;;
51692;SDS011;37777;53.066;21.638;2022-12-24T21:11:15;15.32;;;8.57;;
51692;SDS011;37777;53.066;21.638;2022-12-24T21:18:35;14.93;;;8.27;;
51692;SDS011;37777;53.066;21.638;2022-12-24T21:25:37;14.63;;;8.10;;
51692;SDS011;37777;53.066;21.638;2022-12-24T21:32:39;12.95;;;8.05;;
51692;SDS011;37777;53.066;21.638;2022-12-24T21:39:42;16.60;;;7.68;;
51692;SDS011;37777;53.066;21.638;2022-12-24T21:46:44;15.63;;;8.77;;
51692;SDS011;37777;53.066;21.638;2022-12-24T21:53:46;23.38;;;10.35;;
51692;SDS011;37777;53.066;21.638;2022-12-24T22:01:07;21.73;;;10.30;;
51692;SDS011;37777;53.066;21.638;2022-12-24T22:08:10;17.02;;;8.77;;
51692;SDS011;37777;53.066;21.638;2022-12-24T22:22:53;17.98;;;8.63;;
51692;SDS011;37777;53.066;21.638;2022-12-24T22:29:55;15.45;;;8.77;;
51692;SDS011;37777;53.066;21.638;2022-12-24T22:36:59;20.52;;;9.13;;
51692;SDS011;37777;53.066;21.638;2022-12-24T22:44:01;23.08;;;10.55;;
51692;SDS011;37777;53.066;21.638;2022-12-24T22:51:04;19.10;;;9.02;;
51692;SDS011;37777;53.066;21.638;2022-12-24T22:58:07;20.05;;;9.20;;
51692;SDS011;37777;53.066;21.638;2022-12-24T23:05:13;18.75;;;9.80;;
51692;SDS011;37777;53.066;21.638;2022-12-24T23:12:15;21.25;;;9.98;;
51692;SDS011;37777;53.066;21.638;2022-12-24T23:19:37;22.48;;;10.00;;
51692;SDS011;37777;53.066;21.638;2022-12-24T23:26:39;22.55;;;10.05;;
51692;SDS011;37777;53.066;21.638;2022-12-24T23:33:42;19.88;;;9.98;;
51692;SDS011;37777;53.066;21.638;2022-12-24T23:40:44;25.95;;;11.38;;
51692;SDS011;37777;53.066;21.638;2022-12-24T23:47:46;19.73;;;10.60;;
51692;SDS011;37777;53.066;21.638;2022-12-24T23:54:48;23.35;;;10.82;;
